Tiempo atmosférico en la estación meteorológica de Grazalema, Cádiz (900 m.)



Fecha
DESCASC
Temp. máxima en grados centígrados (hora)
DESCASC
Temp. mínima en grados centígrados (hora)
DESCASC
Temp. media en grados centígrados
DESCASC
Racha de viento máxima en m/sg (hora)
DESCASC
Velocidad máxima media en intervalos de 10 minutos(hora)
DESCASC
Precipitaciones diarias en mm
DESCASC
Precipitaciones de 00:00 a 06:00 en mm
DESCASC
Precipitaciones de 06:00 a 12:00 en mm
DESCASC
Precipitaciones de 12:00 a 18:00 en mm
DESCASC
Precipitaciones de 18:00 a 24:00 en mm
DESCASC
13-06-2019 21.9 (17:10) 10.5 (06:40) 16.2 6.94 (20:20) 3.06 (20:20) 0 0 0 0 0
12-06-2019 23.3 (15:40) 10 (07:10) 16.6 8.06 (12:10) 2.78 (12:00) 0 0 0 0 0
11-06-2019 21.1 (16:10) 13.5 (02:10) 17.3 7.5 (12:00) 3.61 (12:00) 0 0 0 0 0
10-06-2019 21.1 (16:40) 9.7 (07:20) 15.4 7.78 (18:50) 2.78 (21:10) 0 0 0 0 0
09-06-2019 20.7 (17:00) 12.3 (00:00) 16.5 7.5 (17:40) 3.33 (23:20) 0 0 0 0 0
08-06-2019 25.1 (14:50) 9.5 (00:00) 17.3 7.78 (14:20) 3.33 (14:20) 0 0 0 0 0
07-06-2019 21.2 (17:00) 10.5 (00:00) 15.9 7.22 (11:40) 2.5 (00:10) 0.1 0 0.1 0 0
06-06-2019 21.3 (14:40) 8 (00:00) 14.6 7.22 (19:30) 3.61 (22:30) 0 0 0 0 0
05-06-2019 18.3 (17:20) 9.4 (00:00) 13.8 9.72 (14:40) 2.78 (08:40) 0 0 0 0 0
04-06-2019 24.5 (16:20) 13.8 (00:00) 19.2 7.5 (17:50) 3.06 (18:00) 0 0 0 0 0
03-06-2019 29.3 (15:40) 13.8 (00:00) 21.5 5.28 (02:20) 3.06 (23:00) 0 0 0 0 0
02-06-2019 29 (16:00) 15.6 (00:00) 22.3 7.5 (01:10) 2.5 (18:20) 0 0 0 0 0
01-06-2019 25.2 (15:20) 18.5 (00:00) 21.9 13.61 (06:20) 5 (02:00) 0 0 0 0 0
31-05-2019 23.7 (15:00) 15.7 (00:00) 19.7 11.67 (01:10) 5 (01:00) 0 0 0 0 0
30-05-2019 23.1 (16:20) 14 (00:00) 18.6 11.67 (23:50) 6.11 (23:50) 0 0 0 0 0
29-05-2019 26.5 (17:10) 14.9 (00:00) 20.7 6.39 (18:10) 3.06 (13:10) 0 0 0 0 0
28-05-2019 27.3 (14:20) 15.1 (00:00) 21.2 6.39 (11:20) 2.78 (01:10) 0 0 0 0 0
27-05-2019 27.2 (16:20) 12.4 (00:00) 19.8 6.67 (17:30) 2.5 (05:20) 0 0 0 0 0
26-05-2019 24.2 (16:40) 11.1 (00:00) 17.7 6.39 (20:50) 3.06 (20:40) 0 0 0 0 0
25-05-2019 23.1 (15:30) 10.8 (00:00) 17 7.78 (16:30) 2.22 (00:40) 0 0 0 0 0
24-05-2019 22.1 (14:30) 12.3 (00:00) 17.2 7.22 (17:30) 3.06 (11:30) 0 0 0 0 0
23-05-2019 25.3 (13:40) 10.4 (00:00) 17.8 6.39 (12:40) 2.5 (08:50) 0 0 0 0 0
22-05-2019 23.2 (13:10) 10.1 (00:00) 16.7 6.11 (11:50) 2.78 (11:50) 0 0 0 0 0
21-05-2019 21.5 (16:10) 9.2 (06:50) 15.3 7.22 (16:40) 2.78 (14:30) 0 0 0 0 0
20-05-2019 19.9 (15:50) 8.5 (07:20) 14.2 6.39 (18:10) 3.06 (21:50) 0 0 0 0 0
19-05-2019 17.9 (16:10) 8.1 (00:00) 13 8.61 (16:20) 3.33 (08:30) 0 0 0 0 0
18-05-2019 16 (15:30) 7.4 (00:00) 11.7 8.61 (16:50) 3.61 (12:20) 0 0 0 0 0
17-05-2019 17 (00:10) 8.1 (00:00) 12.6 10 (01:30) 3.89 (01:30) 0 0 0 0 0

Gráficas

Temp. máximas Temp. mínimas Temp. medias Precipitaciones Rachas de viento máximas Velocidades máximas media en intervalos de 10 minutos

Datos horarios

Fecha y hora oficial Temperatura (ºC) Velocidad del viento (km/h) Dirección del viento Racha (km/h) Dirección de racha Precipitación (mm) Presión (hPa) Tendencia (hPa) Humedad (%)
2019-06-15 23:00:00 14.2 8 Oeste 13 Oeste 0 915.3 0.9 56
2019-06-15 22:00:00 16.1 7 Oeste 10 Oeste 0 914.9 0.4 48
2019-06-15 21:00:00 19.2 3 Oeste 14 Noroeste 0 914.6 0 42
2019-06-15 20:00:00 21.3 4 Oeste 16 Oeste 0 914.4 -0.6 38
2019-06-15 19:00:00 22.4 4 Oeste 14 Noroeste 0 914.5 -0.6 37
2019-06-15 18:00:00 23.5 3 Este 14 Este 0 914.6 -0.7 37
2019-06-15 17:00:00 23.7 7 Este 21 Sudeste 0 915 -0.6 36
2019-06-15 16:00:00 23 6 Este 18 Este 0 915.1 -0.8 37
2019-06-15 15:00:00 22.8 6 Este 15 Norte 0 915.3 -0.6 39
2019-06-15 14:00:00 21.3 6 Este 19 Este 0 915.6 -0.2 43
2019-06-15 13:00:00 19.8 6 Nordeste 19 Este 0 915.9 0 46
2019-06-15 12:00:00 18.4 6 Este 19 Este 0 915.9 0.4 51
2019-06-15 11:00:00 16.4 4 Este 14 Este 0 915.8 0.5 56
2019-06-15 10:00:00 13.5 4 Este 16 Este 0 915.9 0.8 66
2019-06-15 09:00:00 12.6 5 Este 9 Este 0 915.5 0.8 70
2019-06-15 08:00:00 9.5 2 Oeste 9 Oeste 0 915.3 0.8 83
2019-06-15 07:00:00 8.3 5 Oeste 9 Oeste 0 915.1 0.6 82
2019-06-15 06:00:00 9 4 Oeste 9 Noroeste 0 914.7 -0.1 78
2019-06-15 05:00:00 10.8 2 Oeste 9 Noroeste 0 914.5 -0.6 75
2019-06-15 04:00:00 9.4 0 Calma 8 Oeste 0 914.5 -1 79
2019-06-15 03:00:00 10.7 0 Calma 9 Oeste 0 914.8 -0.7 76
2019-06-15 02:00:00 9.6 0 Calma 10 Noroeste 0 915.1 0 83
2019-06-15 01:00:00 10 4 Noroeste 14 Noroeste 0 915.5 0.9 84
2019-06-15 00:00:00 10.2 9 Oeste 17 Sudoeste 0 915.5 1.3 83
2019-06-14 23:00:00 10.7 10 Oeste 20 Oeste 0 915.1 1.2 80
2019-06-14 22:00:00 11.3 7 Oeste 14 Oeste 0 914.6 1 76
2019-06-14 21:00:00 12.4 5 Oeste 19 Noroeste 0 914.2 0.5 69
2019-06-14 20:00:00 13.9 6 Oeste 21 Sudoeste 0 913.9 0.6 63
2019-06-14 19:00:00 15.5 7 Sudoeste 22 Oeste 0 913.6 0.4 58
2019-06-14 18:00:00 15.5 8 Oeste 24 Oeste 0 913.7 0.6 49
2019-06-14 17:00:00 16 8 Oeste 30 Oeste 0 913.3 0 48
2019-06-14 16:00:00 15.6 10 Oeste 29 Sudoeste 0 913.2 0 53
2019-06-14 15:00:00 15.3 8 Oeste 29 Sudoeste 0 913.1 0.2 57
2019-06-14 14:00:00 15 10 Oeste 25 Noroeste 0 913.3 0.8 65
2019-06-14 13:00:00 13.4 10 Oeste 25 Oeste 0 913.2 1.4 72
2019-06-14 12:00:00 13.4 10 Oeste 25 Oeste 0 912.9 2.2 70
2019-06-14 11:00:00 12.2 9 Oeste 24 Noroeste 0 912.5 2.2 79
2019-06-14 10:00:00 11.8 9 Oeste 27 Oeste 0 911.8 2 83
2019-06-14 09:00:00 10.9 9 Sudoeste 30 Noroeste 0 910.7 1.4 87
2019-06-14 08:00:00 10.5 7 Oeste 28 Sur 0 910.3 1.1 90
2019-06-14 07:00:00 10.4 8 Oeste 27 Oeste 0 909.8 0.4 94
2019-06-14 06:00:00 11.4 12 Oeste 22 Oeste 0 909.3 -0.4 93
2019-06-14 05:00:00 12.4 9 Oeste 24 Sudoeste 0 909.2 -0.9 88
2019-06-14 04:00:00 13.6 8 Sudoeste 23 Oeste 0 909.4 -1.2 86
2019-06-14 03:00:00 14 3 Oeste 19 Noroeste 0 909.7 -0.7 84
2019-06-14 02:00:00 13.5 6 Oeste 18 Sudoeste 0 910.1 0.6 83
2019-06-14 01:00:00 14.1 7 Oeste 16 Oeste 0 910.6 1.9 83
2019-06-14 00:00:00 14.3 8 Oeste 20 Sudoeste 0 910.4 2.3 81
2019-06-13 23:00:00 14.3 10 Oeste 23 Sudoeste 0 909.5 1.7 80
2019-06-13 22:00:00 14.8 9 Oeste 23 Oeste 0 908.7 1.4 76
2019-06-13 21:00:00 16.2 9 Oeste 25 Oeste 0 908.1 0.9 75
2019-06-13 20:00:00 18.7 8 Oeste 22 Oeste 0 907.8 0.4 69
2019-06-13 19:00:00 19.8 8 Oeste 23 Sudoeste 0 907.3 -0.3 65
2019-06-13 18:00:00 21.1 6 Oeste 20 Oeste 0 907.2 -0.8 63
2019-06-13 17:00:00 21.2 6 Oeste 20 Noroeste 0 907.4 -0.7 61
2019-06-13 16:00:00 20.7 0 Calma 12 Este 0 907.6 -0.5 60
2019-06-13 15:00:00 19.9 8 Este 20 Nordeste 0 908 -0.3 61
2019-06-13 14:00:00 19.4 4 Nordeste 20 Nordeste 0 908.1 0 64
2019-06-13 13:00:00 18.7 5 Nordeste 17 Este 0 908.1 0.1 67
2019-06-13 12:00:00 17.7 5 Nordeste 19 Este 0 908.3 0.8 70
2019-06-13 11:00:00 16.6 4 Este 19 Este 0 908.1 0.7 73
2019-06-13 10:00:00 16.5 4 Nordeste 15 Este 0 908 0.9 75
2019-06-13 09:00:00 15.5 3 Nordeste 11 Este 0 907.5 0.3 78
2019-06-13 08:00:00 12.2 4 Oeste 9 Oeste 0 907.4 0 85
2019-06-13 07:00:00 10.8 7 Oeste 10 Oeste 0 907.1 -0.5 84
2019-06-13 06:00:00 10.8 6 Noroeste 13 Sudeste 0 907.2 -0.8 82
2019-06-13 05:00:00 11.7 7 Oeste 12 Oeste 0 907.4 -1 80
2019-06-13 04:00:00 13 4 Oeste 18 Sur 0 907.6 -1 74
2019-06-13 03:00:00 15.5 0 Calma 17 Sur 0 908 -0.8 68
2019-06-13 02:00:00 15.4 5 Sudeste 19 Sudoeste 0 908.4 -0.1 70
2019-06-13 01:00:00 12.8 6 Oeste 10 Noroeste 0 908.6 0.5 91
2019-06-13 00:00:00 13.3 6 Oeste 10 Noroeste 0 908.8 0.9 90
2019-06-12 23:00:00 14.3 6 Oeste 11 Noroeste 0 908.5 0.8 86
2019-06-12 22:00:00 15.7 7 Oeste 12 Noroeste 0 908.1 0.4 82
2019-06-12 21:00:00 17.3 8 Oeste 15 Oeste 0 907.9 0 74
2019-06-12 20:00:00 19.4 6 Oeste 16 Oeste 0 907.7 -0.5 66
2019-06-12 19:00:00 20.1 6 Oeste 17 Oeste 0 907.7 -0.8 65
2019-06-12 18:00:00 21.1 5 Oeste 21 Sudoeste 0 907.9 -1 59
2019-06-12 17:00:00 22 7 Oeste 16 Noroeste 0 908.2 -1.3 55
2019-06-12 16:00:00 21.7 3 Noroeste 13 Sudeste 0 908.5 -1.1 46
2019-06-12 15:00:00 21.8 2 Este 17 Este 0 908.9 -0.8 48
2019-06-12 14:00:00 21.1 0 Calma 21 Este 0 909.5 -0.1 52
2019-06-12 13:00:00 19.5 2 Nordeste 29 Nordeste 0 909.6 0.3 55
2019-06-12 12:00:00 19.4 10 Este 26 Este 0 909.7 0.4 58
2019-06-12 11:00:00 18.8 9 Nordeste 24 Nordeste 0 909.6 0.7 62
2019-06-12 10:00:00 16.7 6 Nordeste 23 Este 0 909.3 0.7 69
2019-06-12 09:00:00 15.8 6 Nordeste 18 Este 0 909.3 0.9 74
2019-06-12 08:00:00 12.5 3 Oeste 11 Oeste 0 908.9 0.6 84
2019-06-12 07:00:00 10.2 7 Oeste 10 Oeste 0 908.6 0.4 83
2019-06-12 06:00:00 10.4 6 Oeste 10 Oeste 0 908.4 0 77
2019-06-12 05:00:00 11 6 Oeste 10 Oeste 0 908.3 -0.4 68
2019-06-12 04:00:00 11.5 6 Oeste 11 Oeste 0 908.2 -0.8 63
2019-06-12 03:00:00 12.4 8 Oeste 12 Oeste 0 908.4 -0.9 61
2019-06-12 02:00:00 13.9 6 Oeste 11 Oeste 0 908.7 -0.4 62
2019-06-12 01:00:00 14.5 5 Oeste 13 Oeste 0 909 0.3 63
2019-06-12 00:00:00 13.7 5 Oeste 16 Oeste 0 909.3 0.6 69
2019-06-11 23:00:00 14.4 9 Oeste 17 Sudoeste 0 909.1 0.6 73
2019-06-11 22:00:00 14.9 8 Oeste 20 Sudoeste 0 908.7 0.2 75
2019-06-11 21:00:00 16.6 7 Oeste 20 Oeste 0 908.7 0.1 66
2019-06-11 20:00:00 18 8 Oeste 20 Oeste 0 908.5 -0.2 59
2019-06-11 19:00:00 19.1 6 Oeste 24 Noroeste 0 908.5 -0.4 55
2019-06-11 18:00:00 20.1 8 Oeste 24 Noroeste 0 908.6 -0.5 49
2019-06-11 17:00:00 20.2 8 Oeste 24 Noroeste 0 908.7 -0.6 47
2019-06-11 16:00:00 20.5 8 Oeste 23 Noroeste 0 908.9 -0.6 46
2019-06-11 15:00:00 20.3 6 Oeste 20 Noroeste 0 909.1 -0.2 48
2019-06-11 14:00:00 19.4 9 Oeste 23 Noroeste 0 909.3 0.2 48
2019-06-11 13:00:00 18.8 12 Oeste 25 Oeste 0 909.5 0.2 48
2019-06-11 12:00:00 18.8 13 Noroeste 27 Noroeste 0 909.3 0.4 44
2019-06-11 11:00:00 18 11 Oeste 26 Sudoeste 0 909.1 0.2 42
2019-06-11 10:00:00 18 9 Oeste 20 Sudoeste 0 909.3 0.1 31
2019-06-11 09:00:00 17.1 8 Oeste 19 Noroeste 0 908.9 -0.5 35
2019-06-11 08:00:00 15.6 5 Oeste 19 Sudoeste 0 908.9 -1 48
2019-06-11 07:00:00 15.9 6 Sudoeste 22 Sudoeste 0 909.2 -1.3 48
2019-06-11 06:00:00 15.3 5 Oeste 19 Noroeste 0 909.4 -1.5 52
2019-06-11 05:00:00 15 5 Oeste 13 Oeste 0 909.9 -1.6 53
2019-06-11 04:00:00 15.2 0 Calma 17 Sudoeste 0 910.5 -1.7 56
2019-06-11 03:00:00 14.4 8 Oeste 20 Oeste 0 910.9 -1.5 60
2019-06-11 02:00:00 13.6 10 Oeste 23 Oeste 0 911.5 -1.1 57
2019-06-11 01:00:00 15.1 9 Oeste 18 Oeste 0 912.2 -0.1 55
2019-06-11 00:00:00 15.2 7 Oeste 18 Oeste 0 912.4 0.2 56
2019-06-10 23:00:00 14.7 6 Oeste 15 Sudoeste 0 912.6 0.2 60
2019-06-10 22:00:00 13.9 6 Oeste 19 Oeste 0 912.3 -0.1 66
2019-06-10 21:00:00 14.8 6 Oeste 24 Sur 0 912.2 -0.3 61
2019-06-10 20:00:00 16.8 8 Oeste 23 Sudoeste 0 912.4 -0.6 55
2019-06-10 19:00:00 18.2 7 Oeste 28 Sudoeste 0 912.4 -0.8 52
2019-06-10 18:00:00 19.7 9 Oeste 23 Noroeste 0 912.5 -1.3 49
2019-06-10 17:00:00 20.8 7 Oeste 19 Sur 0 913 -1 40
2019-06-10 16:00:00 19.5 8 Oeste 22 Oeste 0 913.2 -1 44
2019-06-10 15:00:00 19.6 8 Oeste 22 Sudoeste 0 913.8 -0.4 49
2019-06-10 14:00:00 19.5 7 Oeste 22 Sudoeste 0 914 0 48
2019-06-10 13:00:00 18.7 7 Oeste 20 Oeste 0 914.2 -0.1 49
2019-06-10 12:00:00 17.4 7 Oeste 22 Oeste 0 914.2 0.2 55
2019-06-10 11:00:00 18 4 Nordeste 14 Sudeste 0 914 0.4 57
2019-06-10 10:00:00 15.3 4 Nordeste 14 Este 0 914.3 0.6 69
2019-06-10 09:00:00 14.7 3 Nordeste 7 Este 0 914 0.3 65
2019-06-10 08:00:00 11.7 5 Oeste 13 Noroeste 0 913.6 -0.6 77
2019-06-10 07:00:00 10.3 6 Oeste 10 Oeste 0 913.7 -0.7 74
2019-06-10 06:00:00 11.8 5 Oeste 13 Oeste 0 913.7 -1 67
2019-06-10 05:00:00 13.5 5 Oeste 14 Sudoeste 0 914.2 -0.9 62
2019-06-10 04:00:00 14.3 5 Oeste 17 Noroeste 0 914.4 -0.8 59
2019-06-10 03:00:00 14.7 3 Noroeste 19 Noroeste 0 914.7 -1 59
2019-06-10 02:00:00 15.1 8 Noroeste 21 Noroeste 0 915.1 -0.3 60
2019-06-10 01:00:00 14.5 9 Oeste 23 Sudoeste 0 915.2 0.2 60
2019-06-10 00:00:00 14.1 9 Oeste 24 Sudoeste 0 915.7 0.9 58
2019-06-09 23:00:00 12.7 9 Oeste 19 Oeste 0 915.4 0.9 57
2019-06-09 22:00:00 13.6 11 Oeste 19 Noroeste 0 915 0.6 49
2019-06-09 21:00:00 15.4 10 Oeste 22 Sudoeste 0 914.8 0.4 44
2019-06-09 20:00:00 17.5 8 Oeste 23 Sudoeste 0 914.5 -0.1 42
2019-06-09 19:00:00 18.7 9 Oeste 24 Oeste 0 914.4 -0.5 42
2019-06-09 18:00:00 19.7 9 Oeste 27 Oeste 0 914.4 -0.7 41
2019-06-09 17:00:00 19.9 6 Oeste 25 Sudoeste 0 914.6 -0.7 47
2019-06-09 16:00:00 20.2 9 Oeste 24 Oeste 0 914.9 -0.4 52
2019-06-09 15:00:00 20.1 9 Oeste 22 Oeste 0 915.1 -0.1 54
2019-06-09 14:00:00 19.7 8 Oeste 22 Sudoeste 0 915.3 0.2 55
2019-06-09 13:00:00 20 9 Sudoeste 22 Oeste 0 915.3 0.1 59
2019-06-09 12:00:00 18.7 6 Oeste 19 Norte 0 915.2 0.2 63
2019-06-09 11:00:00 17.9 6 Noroeste 14 Oeste 0 915.1 0.3 66
2019-06-09 10:00:00 16.8 3 Nordeste 13 Noroeste 0 915.2 0.6 73
2019-06-09 09:00:00 13.9 0 Calma 8 Noroeste 0 915 0.7 86
2019-06-09 08:00:00 13 0 Calma 7 Oeste 0 914.8 0.3 85
2019-06-09 07:00:00 13 5 Oeste 9 Noroeste 0 914.6 0 78
2019-06-09 06:00:00 12.9 6 Oeste 10 Noroeste 0 914.3 -0.5 67
2019-06-09 05:00:00 13.6 0 Calma 9 Noroeste 0 914.5 -0.8 76
2019-06-09 04:00:00 14.4 5 Oeste 16 Sur 0 914.6 -1 59
2019-06-09 03:00:00 17 3 Noroeste 14 Noroeste 0 914.8 -0.8 46
2019-06-09 02:00:00 16.2 0 Calma 19 Sudoeste 0 915.3 -0.1 50
2019-06-09 01:00:00 16.8 3 Oeste 17 Sur 0 915.6 0.9 50
2019-06-09 00:00:00 18 4 Sudeste 24 Sur 0 915.6 1.1 46
2019-06-08 23:00:00 18 2 Este 14 Sur 0 915.4 1.1 47
2019-06-08 22:00:00 18.8 2 Sudeste 16 Sudoeste 0 914.7 0.8 45
2019-06-08 21:00:00 20.1 5 Sur 14 Sur 0 914.5 0.4 45
2019-06-08 20:00:00 21.7 4 Sur 14 Este 0 914.3 0.2 42
2019-06-08 19:00:00 22.9 6 Este 19 Nordeste 0 913.9 -0.4 41
2019-06-08 18:00:00 23.5 3 Nordeste 21 Este 0 914.1 -0.4 39
2019-06-08 17:00:00 24.4 11 Este 23 Este 0 914.1 -0.7 38
2019-06-08 16:00:00 24.5 8 Este 23 Este 0 914.3 -0.7 38
2019-06-08 15:00:00 24.4 9 Este 28 Este 0 914.5 -0.1 37
2019-06-08 14:00:00 24 3 Norte 15 Sudoeste 0 914.8 0.3 37
2019-06-08 13:00:00 24.1 2 Nordeste 28 Nordeste 0 915 0.5 36
2019-06-08 12:00:00 23.2 6 Nordeste 21 Este 0 914.6 0.5 36
2019-06-08 11:00:00 22.2 7 Nordeste 23 Este 0 914.5 0.7 36
2019-06-08 10:00:00 19.7 4 Nordeste 10 Este 0 914.5 0.9 42
2019-06-08 09:00:00 17.2 2 Noroeste 12 Oeste 0 914.1 0.3 52
2019-06-08 08:00:00 13 9 Oeste 14 Noroeste 0 913.8 -0.2 60
2019-06-08 07:00:00 10.2 8 Oeste 13 Noroeste 0 913.6 -0.3 57
2019-06-08 06:00:00 9.7 8 Oeste 12 Oeste 0 913.8 -0.4 58
2019-06-08 05:00:00 9.7 8 Oeste 12 Oeste 0 914 -0.5 57
2019-06-08 04:00:00 10.5 8 Oeste 12 Noroeste 0 913.9 -1 55
2019-06-08 03:00:00 10.6 9 Oeste 13 Oeste 0 914.2 -0.8 53
2019-06-08 02:00:00 10.5 7 Oeste 12 Oeste 0 914.5 -0.3 53
2019-06-08 01:00:00 10.7 9 Oeste 13 Oeste 0 914.9 0.6 52
2019-06-08 00:00:00 11.7 8 Oeste 11 Oeste 0 915 1 49
2019-06-07 23:00:00 12.8 5 Oeste 10 Oeste 0 914.8 1.1 48
2019-06-07 22:00:00 14.2 4 Oeste 9 Oeste 0 914.3 0.8 48
2019-06-07 21:00:00 16.4 4 Oeste 9 Oeste 0 914 0.6 44
2019-06-07 20:00:00 18.9 0 Calma 14 Este 0 913.7 0.3 39
2019-06-07 19:00:00 19.9 3 Nordeste 12 Este 0 913.5 -0.1 40
2019-06-07 18:00:00 20.7 4 Nordeste 18 Este 0 913.4 -0.2 41
2019-06-07 17:00:00 21 0 Calma 16 Noroeste 0 913.4 -0.2 41
2019-06-07 16:00:00 19.7 4 Sudoeste 16 Oeste 0 913.6 0.2 43
2019-06-07 15:00:00 18.2 6 Noroeste 20 Norte 0 913.6 0.5 48
2019-06-07 14:00:00 18 8 Oeste 22 Noroeste 0 913.6 0.6 59
2019-06-07 13:00:00 15.7 8 Oeste 20 Sur 0 913.4 0.8 69
2019-06-07 12:00:00 14.2 9 Oeste 26 Noroeste 0 913.1 1.1 79
2019-06-07 11:00:00 13 6 Oeste 17 Oeste 0 913 1.5 94
2019-06-07 10:00:00 13 5 Oeste 17 Noroeste 0 912.6 1.6 97
2019-06-07 09:00:00 12.8 6 Oeste 16 Noroeste 0.1 912 1.3 97
2019-06-07 08:00:00 12.6 4 Oeste 13 Oeste 0 911.5 0.8 97
2019-06-07 07:00:00 12.4 6 Oeste 18 Oeste 0 911 0.1 97
2019-06-07 06:00:00 11.6 8 Oeste 20 Noroeste 0 910.7 -0.3 97
2019-06-07 05:00:00 11.5 6 Oeste 18 Noroeste 0 910.7 -0.4 96
2019-06-07 04:00:00 11.4 7 Oeste 19 Noroeste 0 910.9 -0.3 95
2019-06-07 03:00:00 11.2 6 Oeste 20 Oeste 0 911 0.1 91
2019-06-07 02:00:00 10.9 7 Oeste 20 Sudoeste 0 911.1 0.6 90
2019-06-07 01:00:00 10.6 7 Oeste 18 Sudoeste 0 911.2 1.2 85
2019-06-07 00:00:00 10.8 9 Oeste 22 Oeste 0 910.9 1.3 90
2019-06-06 23:00:00 11.2 11 Oeste 23 Oeste 0 910.5 1.1 81
2019-06-06 22:00:00 11.9 9 Oeste 15 Noroeste 0 910 0.7 66
2019-06-06 21:00:00 13.8 6 Oeste 19 Sudoeste 0 909.6 0.2 45
2019-06-06 20:00:00 15.4 9 Oeste 26 Sudoeste 0 909.4 -0.4 42
2019-06-06 19:00:00 17 9 Oeste 25 Sudoeste 0 909.3 -0.8 42
2019-06-06 18:00:00 19 9 Oeste 25 Oeste 0 909.4 -1 41
2019-06-06 17:00:00 19.9 9 Oeste 24 Oeste 0 909.8 -0.6 39
2019-06-06 16:00:00 20.8 8 Oeste 21 Noroeste 0 910.1 -0.5 38
2019-06-06 15:00:00 20.9 8 Oeste 21 Sudoeste 0 910.4 -0.1 41
2019-06-06 14:00:00 20.3 10 Oeste 23 Noroeste 0 910.4 -0.3 42
2019-06-06 13:00:00 19 7 Oeste 19 Oeste 0 910.6 -0.1 44
2019-06-06 12:00:00 18.7 5 Oeste 17 Oeste 0 910.5 -0.3 45
2019-06-06 11:00:00 17.3 3 Norte 12 Este 0 910.7 -0.1 52
2019-06-06 10:00:00 15.3 4 Este 9 Este 0 910.7 -0.1 61
2019-06-06 09:00:00 12.9 2 Nordeste 8 Oeste 0 910.8 0 66
2019-06-06 08:00:00 9.5 7 Oeste 10 Oeste 0 910.8 -0.1 76
2019-06-06 07:00:00 8.1 5 Oeste 12 Oeste 0 910.8 -0.3 75
2019-06-06 06:00:00 8.6 7 Oeste 11 Oeste 0 910.8 -0.7 74
2019-06-06 05:00:00 9 4 Oeste 11 Noroeste 0 910.9 -1.2 73
2019-06-06 04:00:00 10.2 8 Oeste 11 Oeste 0 911.1 -1.2 70
2019-06-06 03:00:00 10.9 6 Oeste 14 Sudoeste 0 911.5 -1.1 70
2019-06-06 02:00:00 12.3 5 Oeste 17 Oeste 0 912.1 -0.2 69
2019-06-06 01:00:00 11.9 6 Oeste 14 Sudoeste 0 912.3 0.6 73
2019-06-06 00:00:00 12 5 Oeste 17 Oeste 0 912.6 1.1 77
2019-06-05 23:00:00 12 9 Oeste 15 Sudoeste 0 912.3 1.1 77
2019-06-05 22:00:00 13.1 8 Oeste 16 Sudoeste 0 911.7 0.4 71
2019-06-05 21:00:00 14.7 7 Oeste 19 Sudoeste 0 911.5 0.1 63
2019-06-05 20:00:00 16.2 7 Oeste 23 Sur 0 911.2 -0.4 53
2019-06-05 19:00:00 17.1 7 Oeste 24 Sudoeste 0 911.3 -0.6 45
2019-06-05 18:00:00 17.9 3 Sudoeste 20 Noroeste 0 911.4 -0.6 46
2019-06-05 17:00:00 17.8 2 Sudoeste 24 Noroeste 0 911.6 -0.9 46
2019-06-05 16:00:00 16.7 8 Noroeste 25 Noroeste 0 911.9 -0.5 50
2019-06-05 15:00:00 17.3 0 Calma 35 Noroeste 0 912 -0.3 49
2019-06-05 14:00:00 17 3 Oeste 32 Noroeste 0 912.5 0.2 51
2019-06-05 13:00:00 16 6 Oeste 22 Oeste 0 912.4 0.4 50
2019-06-05 12:00:00 14.8 6 Oeste 26 Sudoeste 0 912.3 0.7 55
2019-06-05 11:00:00 14 4 Sur 18 Oeste 0 912.3 1 59
2019-06-05 10:00:00 12.4 0 Calma 24 Oeste 0 912 1.2 65
2019-06-05 09:00:00 10.9 8 Oeste 27 Oeste 0 911.6 1.2 69
2019-06-05 08:00:00 9.4 7 Oeste 27 Oeste 0 911.3 1.1 76
2019-06-05 07:00:00 10 8 Noroeste 23 Noroeste 0 910.8 0.6 76
2019-06-05 06:00:00 11 9 Oeste 30 Noroeste 0 910.4 0.1 80
2019-06-05 05:00:00 12.1 7 Oeste 23 Sudoeste 0 910.2 -0.4 86
2019-06-05 04:00:00 13.6 6 Oeste 26 Oeste 0 910.2 -0.3 81
2019-06-05 03:00:00 14.2 7 Oeste 24 Sudoeste 0 910.3 -0.1 89
2019-06-05 02:00:00 14.7 8 Oeste 25 Sudoeste 0 910.6 0.5 89
2019-06-05 01:00:00 14.9 6 Oeste 19 Sudoeste 0 910.5 0.9 88
2019-06-05 00:00:00 15 6 Sudoeste 22 Sudoeste 0 910.4 1.1 88
2019-06-04 23:00:00 14.5 7 Oeste 22 Sudoeste 0 910.1 0.5 90
2019-06-04 22:00:00 15.5 8 Sudoeste 19 Sudoeste 0 909.6 0 88
2019-06-04 21:00:00 17.1 7 Oeste 23 Sudoeste 0 909.3 -0.6 75
2019-06-04 20:00:00 18.7 8 Oeste 25 Sudoeste 0 909.6 -0.7 61
2019-06-04 19:00:00 20.8 8 Oeste 26 Sudoeste 0 909.6 -1.3 56
2019-06-04 18:00:00 21.9 11 Sudoeste 27 Sudoeste 0 909.9 -1.5 54
2019-06-04 17:00:00 23.1 9 Oeste 23 Sudoeste 0 910.3 -1.6 50
2019-06-04 16:00:00 24 8 Oeste 25 Sudoeste 0 910.9 -1.3 51
2019-06-04 15:00:00 23.9 10 Sudoeste 25 Sudoeste 0 911.4 -0.6 49
2019-06-04 14:00:00 23.6 10 Sudoeste 26 Sudoeste 0 911.9 -0.3 49
2019-06-04 13:00:00 23.3 8 Oeste 22 Sudoeste 0 912.2 0.3 45
2019-06-04 12:00:00 23.9 8 Sudoeste 22 Sudoeste 0 912 0.3 38
2019-06-04 11:00:00 21.9 7 Oeste 19 Oeste 0 912.2 0.7 44
2019-06-04 10:00:00 21.6 5 Oeste 17 Sudoeste 0 911.9 0.5 42
2019-06-04 09:00:00 19.8 5 Oeste 14 Oeste 0 911.7 0.4 48
2019-06-04 08:00:00 15.9 6 Oeste 13 Oeste 0 911.5 -0.2 57
2019-06-04 07:00:00 14.2 9 Oeste 14 Oeste 0 911.4 -0.9 55
2019-06-04 06:00:00 14.2 6 Oeste 12 Noroeste 0 911.3 -1.5 53
2019-06-04 05:00:00 15 8 Oeste 13 Oeste 0 911.7 -1.5 49
2019-06-04 04:00:00 15.9 9 Oeste 14 Oeste 0 912.3 -1.5 40
2019-06-04 03:00:00 18.2 8 Oeste 16 Sudoeste 0 912.8 -1.1 38
2019-06-04 02:00:00 17.5 6 Oeste 12 Noroeste 0 913.2 -0.5 43
2019-06-04 01:00:00 17.5 7 Oeste 14 Oeste 0 913.8 0.6 55
2019-06-04 00:00:00 16.5 9 Oeste 14 Noroeste 0 913.9 0.7 54
2019-06-03 23:00:00 17.8 11 Noroeste 14 Noroeste 0 913.7 0.4 51
2019-06-03 22:00:00 18.5 9 Oeste 17 Oeste 0 913.2 -0.3 52
2019-06-03 21:00:00 20.5 7 Oeste 14 Noroeste 0 913.2 -0.5 50
2019-06-03 20:00:00 23.9 8 Oeste 17 Oeste 0 913.3 -0.6 43
2019-06-03 19:00:00 25 9 Oeste 18 Oeste 0 913.5 -0.7 42
2019-06-03 18:00:00 26 9 Oeste 19 Noroeste 0 913.7 -1 41
2019-06-03 17:00:00 27.5 7 Oeste 17 Oeste 0 913.9 -1.2 40
2019-06-03 16:00:00 29.1 5 Oeste 16 Este 0 914.2 -1 38
2019-06-03 15:00:00 28.7 3 Nordeste 16 Este 0 914.7 -0.4 33
2019-06-03 14:00:00 27.5 4 Nordeste 16 Noroeste 0 915.1 0 34
2019-06-03 13:00:00 27.5 4 Nordeste 14 Este 0 915.2 0.3 33
2019-06-03 12:00:00 26.8 3 Nordeste 13 Este 0 915.1 0.5 34
2019-06-03 11:00:00 25.3 6 Este 12 Este 0 915.1 0.4 36
2019-06-03 10:00:00 23.1 3 Nordeste 8 Este 0 914.9 0.4 35
2019-06-03 09:00:00 19.9 4 Oeste 10 Oeste 0 914.6 0.1 47
2019-06-03 08:00:00 15.7 8 Oeste 14 Oeste 0 914.7 0.1 45
2019-06-03 07:00:00 14.2 10 Oeste 13 Noroeste 0 914.5 -0.6 42
2019-06-03 06:00:00 14.7 8 Oeste 13 Oeste 0 914.5 -0.6 39
2019-06-03 05:00:00 15.5 6 Oeste 14 Oeste 0 914.6 -0.8 39
2019-06-03 04:00:00 15.4 9 Oeste 12 Oeste 0 915.1 -0.8 39
2019-06-03 03:00:00 17.7 6 Oeste 19 Sudoeste 0 915.1 -1 34
2019-06-03 02:00:00 17.8 5 Oeste 12 Noroeste 0 915.4 -0.3 36
2019-06-03 01:00:00 16.8 8 Oeste 15 Oeste 0 915.9 0.8 42
2019-06-03 00:00:00 15.6 9 Oeste 12 Noroeste 0 916.1 1.4 49
2019-06-02 23:00:00 16.3 9 Oeste 12 Oeste 0 915.7 1.4 49
2019-06-02 22:00:00 16.9 8 Oeste 12 Oeste 0 915.1 0.8 50
2019-06-02 21:00:00 18 7 Oeste 11 Oeste 0 914.7 0.2 48
2019-06-02 20:00:00 24.7 0 Calma 12 Este 0 914.3 -0.3 35
2019-06-02 19:00:00 26.2 5 Este 19 Este 0 914.3 -0.5 33
2019-06-02 18:00:00 27 8 Este 19 Este 0 914.5 -0.6 32
2019-06-02 17:00:00 28.4 4 Este 18 Este 0 914.6 -1.2 31
2019-06-02 16:00:00 28.9 3 Nordeste 24 Este 0 914.8 -1.2 31
2019-06-02 15:00:00 27.7 5 Este 16 Este 0 915.1 -0.7 31
2019-06-02 14:00:00 26.9 5 Este 15 Este 0 915.8 0.1 31
2019-06-02 13:00:00 26.1 7 Este 18 Nordeste 0 916 0.6 32
2019-06-02 12:00:00 24.6 4 Nordeste 16 Este 0 915.8 0.7 34
2019-06-02 11:00:00 24.3 3 Nordeste 13 Nordeste 0 915.7 0.6 34
2019-06-02 10:00:00 21.8 2 Nordeste 10 Este 0 915.4 0.5 37
2019-06-02 09:00:00 20.5 0 Calma 20 Este 0 915.1 0.4 39
2019-06-02 08:00:00 18.8 0 Calma 17 Sur 0 915.1 0.1 39
2019-06-02 07:00:00 19.4 4 Este 23 Sudeste 0 914.9 -0.4 37
2019-06-02 06:00:00 19.2 0 Calma 19 Noroeste 0 914.7 -0.7 39
2019-06-02 05:00:00 19.2 6 Sur 15 Sur 0 915 -0.7 41
2019-06-02 04:00:00 17.8 5 Noroeste 14 Noroeste 0 915.3 -0.5 40
2019-06-02 03:00:00 19.2 6 Noroeste 22 Sudoeste 0 915.4 -0.4 38
2019-06-02 02:00:00 19.2 4 Oeste 27 Sudoeste 0 915.7 0.3 37
2019-06-02 01:00:00 20.1 6 Sudoeste 22 Sur 0 915.8 0.7 35
2019-06-02 00:00:00 20.9 4 Sur 24 Sudeste 0 915.8 0.8 35
2019-06-01 23:00:00 21 6 Sudoeste 30 Sur 0 915.4 0.7 35
2019-06-01 22:00:00 20.6 8 Sudeste 31 Este 0 915.1 0.3 36
2019-06-01 21:00:00 21.4 10 Este 30 Este 0 915 -0.1 35
2019-06-01 20:00:00 22.1 9 Este 28 Este 0 914.7 -0.8 35
2019-06-01 19:00:00 23.1 8 Nordeste 23 Este 0 914.8 -1.1 36
2019-06-01 18:00:00 23.7 8 Nordeste 27 Este 0 915.1 -0.9 38
2019-06-01 17:00:00 24.2 10 Este 28 Este 0 915.5 -0.8 37
2019-06-01 16:00:00 24.6 10 Este 24 Este 0 915.9 -0.7 37
2019-06-01 15:00:00 24.3 8 Este 21 Este 0 916 -0.2 38
2019-06-01 14:00:00 24 9 Este 22 Este 0 916.3 0 38
2019-06-01 13:00:00 23.2 9 Este 26 Este 0 916.6 0.6 38
2019-06-01 12:00:00 22.7 7 Nordeste 26 Este 0 916.2 0.6 38
2019-06-01 11:00:00 21.9 6 Nordeste 24 Este 0 916.3 0.8 38
2019-06-01 10:00:00 20 8 Nordeste 24 Nordeste 0 916 0.8 40
2019-06-01 09:00:00 19.8 5 Nordeste 33 Nordeste 0 915.6 0.2 40
2019-06-01 08:00:00 18.9 8 Nordeste 37 Este 0 915.5 0.2 42
2019-06-01 07:00:00 19 17 Este 49 Nordeste 0 915.2 -0.4 42
2019-06-01 06:00:00 18.9 13 Este 41 Este 0 915.4 -0.6 43
2019-06-01 05:00:00 18.8 13 Este 42 Nordeste 0 915.3 -1 43
2019-06-01 04:00:00 18.6 15 Este 31 Este 0 915.6 -1.1 44
2019-06-01 03:00:00 19.2 15 Este 45 Este 0 916 -1.1 43
2019-06-01 02:00:00 19.3 18 Este 41 Este 0 916.3 -0.5 43
2019-06-01 01:00:00 19.1 15 Este 31 Este 0 916.7 0.4 45
2019-06-01 00:00:00 18.8 13 Este 27 Este 0 917.1 1.3 46
2019-05-31 23:00:00 18.9 6 Este 20 Este 0 916.8 1.1 45
2019-05-31 22:00:00 19.4 8 Este 26 Este 0 916.3 0.4 44
2019-05-31 21:00:00 19.9 6 Sudeste 29 Este 0 915.8 -0.5 43
2019-05-31 20:00:00 21.1 13 Este 28 Este 0 915.7 -0.6 43
2019-05-31 19:00:00 22 10 Este 24 Este 0 915.9 -0.6 43
2019-05-31 18:00:00 22.2 9 Este 27 Este 0 916.3 -0.3 43
2019-05-31 17:00:00 22.9 12 Este 27 Este 0 916.3 -0.7 41
2019-05-31 16:00:00 23.2 9 Este 32 Este 0 916.5 -0.4 40
2019-05-31 15:00:00 23.7 12 Este 32 Este 0 916.6 -0.2 40
2019-05-31 14:00:00 22.5 8 Nordeste 38 Este 0 917 0.3 42
2019-05-31 13:00:00 21.7 13 Nordeste 38 Este 0 916.9 0.1 42
2019-05-31 12:00:00 20.9 11 Nordeste 41 Este 0 916.8 0.1 44
2019-05-31 11:00:00 20.6 10 Nordeste 36 Este 0 916.7 0.2 43
2019-05-31 10:00:00 19 17 Este 37 Este 0 916.8 0.6 45
2019-05-31 09:00:00 18.2 13 Este 36 Este 0 916.7 0.5 45
2019-05-31 08:00:00 17.5 14 Este 35 Este 0 916.5 0.1 45
2019-05-31 07:00:00 16.7 12 Este 28 Este 0 916.2 -0.2 46
2019-05-31 06:00:00 16.4 9 Este 30 Este 0 916.2 -0.8 46
2019-05-31 05:00:00 15.9 8 Este 34 Este 0 916.4 -1 46
2019-05-31 04:00:00 17 16 Este 33 Este 0 916.4 -1.3 43
2019-05-31 03:00:00 17.5 15 Este 39 Este 0 917 -1.2 42
2019-05-31 02:00:00 18 15 Este 42 Este 0 917.4 -0.6 41
2019-05-31 01:00:00 18 18 Este 37 Este 0 917.7 0.2 41
2019-05-31 00:00:00 17.7 19 Este 42 Este 0 918.2 1.1 43
2019-05-30 23:00:00 17.4 14 Este 33 Este 0 918 1 46
2019-05-30 22:00:00 17.8 4 Nordeste 18 Noroeste 0 917.5 0.7 53
2019-05-30 21:00:00 18 2 Nordeste 13 Nordeste 0 917.1 -0.1 55
2019-05-30 20:00:00 19 3 Nordeste 22 Este 0 917 -0.4 55
2019-05-30 19:00:00 20.1 6 Nordeste 32 Este 0 916.8 -0.8 52
2019-05-30 18:00:00 20.7 7 Nordeste 23 Este 0 917.2 -0.4 51
2019-05-30 17:00:00 21.3 11 Este 26 Este 0 917.4 -0.3 48
2019-05-30 16:00:00 22.5 8 Este 26 Este 0 917.6 -0.3 48
2019-05-30 15:00:00 21.8 9 Este 26 Este 0 917.6 -0.4 50
2019-05-30 14:00:00 21.3 8 Nordeste 25 Este 0 917.7 0.1 51
2019-05-30 13:00:00 21 8 Nordeste 28 Este 0 917.9 0.4 52
2019-05-30 12:00:00 20.3 9 Nordeste 34 Este 0 918 0.9 52
2019-05-30 11:00:00 19.4 9 Nordeste 28 Este 0 917.6 0.8 52
2019-05-30 10:00:00 18.2 5 Nordeste 19 Sudoeste 0 917.5 1.1 53
2019-05-30 09:00:00 16.9 5 Sudeste 25 Sudeste 0 917.1 1.1 54
2019-05-30 08:00:00 16.3 4 Norte 16 Norte 0 916.8 0.8 55
2019-05-30 07:00:00 15.8 2 Sudoeste 34 Sudeste 0 916.4 0.1 56
2019-05-30 06:00:00 16.4 5 Noroeste 18 Noroeste 0 916 -0.5 57
2019-05-30 05:00:00 16.8 2 Noroeste 16 Sudeste 0 916 -0.7 56
2019-05-30 04:00:00 16.1 0 Calma 17 Sur 0 916.3 -0.6 56
2019-05-30 03:00:00 16 3 Oeste 9 Noroeste 0 916.5 -0.4 58
2019-05-30 02:00:00 16.3 0 Calma 7 Noroeste 0 916.7 0.3 58
2019-05-30 01:00:00 16.3 3 Oeste 6 Oeste 0 916.9 1.3 59
2019-05-30 00:00:00 17.1 4 Oeste 8 Noroeste 0 916.9 1.8 58
2019-05-29 23:00:00 18.2 2 Oeste 7 Noroeste 0 916.4 1.8 56
2019-05-29 22:00:00 18.8 3 Oeste 9 Oeste 0 915.6 0.8 55
2019-05-29 21:00:00 21.8 0 Calma 14 Este 0 915.1 0.4 48
2019-05-29 20:00:00 23.5 7 Este 20 Este 0 914.6 -0.3 45
2019-05-29 19:00:00 24.5 7 Nordeste 23 Este 0 914.8 -0.3 43
2019-05-29 18:00:00 25.4 9 Este 23 Nordeste 0 914.7 -0.5 43
2019-05-29 17:00:00 26.4 4 Nordeste 21 Este 0 914.9 -0.6 43
2019-05-29 16:00:00 25.8 7 Este 19 Sudeste 0 915.1 -0.2 44
2019-05-29 15:00:00 24.8 6 Este 19 Nordeste 0 915.2 0.2 46
2019-05-29 14:00:00 24 6 Este 22 Este 0 915.5 0.9 48
2019-05-29 13:00:00 23.1 8 Nordeste 19 Este 0 915.3 1 51
2019-05-29 12:00:00 22.7 5 Nordeste 18 Nordeste 0 915 1.1 52
2019-05-29 11:00:00 22.9 4 Nordeste 14 Este 0 914.6 1.5 54
2019-05-29 10:00:00 20.8 3 Nordeste 13 Sudeste 0 914.3 1.6 58
2019-05-29 09:00:00 19.2 0 Calma 9 Oeste 0 913.9 1.4 66
2019-05-29 08:00:00 16.4 8 Oeste 11 Noroeste 0 913.1 0.5 69
2019-05-29 07:00:00 15.1 7 Oeste 11 Oeste 0 912.7 0.3 67
2019-05-29 06:00:00 15.3 5 Oeste 11 Oeste 0 912.5 -0.1 66
2019-05-29 05:00:00 15.5 8 Oeste 12 Noroeste 0 912.6 0 66
2019-05-29 04:00:00 16.5 5 Oeste 10 Oeste 0 912.4 -0.3 62
2019-05-29 03:00:00 17.9 7 Oeste 11 Oeste 0 912.6 0.1 56
2019-05-29 02:00:00 17.2 6 Oeste 11 Noroeste 0 912.6 0.2 57
2019-05-29 01:00:00 17.6 5 Oeste 12 Noroeste 0 912.7 0.8 56
2019-05-29 00:00:00 17.6 8 Oeste 12 Oeste 0 912.5 0.9 58
2019-05-28 23:00:00 18 7 Oeste 12 Oeste 0 912.4 1 58
2019-05-28 22:00:00 17.7 8 Oeste 13 Noroeste 0 911.9 0.6 59
2019-05-28 21:00:00 19.8 9 Oeste 13 Noroeste 0 911.6 0.2 56
2019-05-28 20:00:00 23.2 6 Oeste 14 Noroeste 0 911.4 0.1 48
2019-05-28 19:00:00 24.9 5 Oeste 17 Sudoeste 0 911.3 0 45
2019-05-28 18:00:00 25.2 7 Oeste 19 Noroeste 0 911.4 0.1 44
2019-05-28 17:00:00 26.7 7 Oeste 19 Oeste 0 911.3 0 40
2019-05-28 16:00:00 26.4 7 Oeste 20 Sudoeste 0 911.3 0 39
2019-05-28 15:00:00 26 9 Oeste 20 Oeste 0 911.3 0.3 41
2019-05-28 14:00:00 26.9 5 Oeste 19 Sudoeste 0 911.3 0.6 39
2019-05-28 13:00:00 26.3 5 Oeste 20 Sudoeste 0 911.3 0.8 38
2019-05-28 12:00:00 26 6 Oeste 23 Oeste 0 911 0.8 39
2019-05-28 11:00:00 25.4 6 Oeste 19 Sudoeste 0 910.7 0.7 44
2019-05-28 10:00:00 23.7 6 Oeste 16 Sudoeste 0 910.5 1 48
2019-05-28 09:00:00 21.5 5 Oeste 10 Oeste 0 910.2 0.6 59
2019-05-28 08:00:00 17.9 8 Oeste 14 Oeste 0 910 0.3 65
2019-05-28 07:00:00 15.6 8 Oeste 12 Oeste 0 909.5 -0.5 71
2019-05-28 06:00:00 15.3 8 Oeste 12 Oeste 0 909.6 -0.7 70
2019-05-28 05:00:00 16 8 Oeste 12 Oeste 0 909.7 -0.8 66
2019-05-28 04:00:00 17.8 5 Oeste 9 Oeste 0 910 -0.9 59
2019-05-28 03:00:00 18.7 6 Oeste 14 Noroeste 0 910.3 -0.9 53
2019-05-28 02:00:00 19.8 7 Oeste 18 Oeste 0 910.5 -0.5 48
2019-05-28 01:00:00 19.6 9 Oeste 17 Oeste 0 910.9 0.1 46
2019-05-28 00:00:00 20.2 7 Oeste 22 Sudoeste 0 911.2 0.8 45
2019-05-27 23:00:00 19.6 6 Oeste 14 Oeste 0 911 0.7 49
2019-05-27 22:00:00 20.2 8 Oeste 17 Sudoeste 0 910.8 0.6 49
2019-05-27 21:00:00 22 8 Oeste 20 Oeste 0 910.4 0 46
2019-05-27 20:00:00 24 7 Oeste 20 Sudoeste 0 910.3 -0.4 42
2019-05-27 19:00:00 25.4 5 Oeste 21 Noroeste 0 910.2 -0.8 36
2019-05-27 18:00:00 25.6 5 Oeste 24 Sudoeste 0 910.4 -0.9 36
2019-05-27 17:00:00 26.7 6 Oeste 21 Noroeste 0 910.7 -1.1 36
2019-05-27 16:00:00 25.7 6 Oeste 19 Sudoeste 0 911 -1.1 39
2019-05-27 15:00:00 25.1 6 Noroeste 18 Noroeste 0 911.3 -0.8 40
2019-05-27 14:00:00 26.2 4 Nordeste 20 Nordeste 0 911.8 -0.4 37
2019-05-27 13:00:00 25.8 7 Este 18 Este 0 912.1 0.2 37
2019-05-27 12:00:00 25.4 6 Este 18 Este 0 912.1 0.5 37
2019-05-27 11:00:00 24.5 8 Este 15 Este 0 912.2 0.7 38
2019-05-27 10:00:00 22.2 6 Este 12 Este 0 911.9 0.6 42
2019-05-27 09:00:00 18.7 5 Oeste 10 Oeste 0 911.6 0.4 61
2019-05-27 08:00:00 14 8 Oeste 12 Oeste 0 911.5 0.2 69
2019-05-27 07:00:00 12.6 8 Oeste 12 Oeste 0 911.3 -0.4 70
2019-05-27 06:00:00 12.7 7 Oeste 12 Oeste 0 911.2 -0.9 70
2019-05-27 05:00:00 13.2 8 Oeste 12 Oeste 0 911.3 -1.1 70
2019-05-27 04:00:00 14.3 7 Oeste 12 Oeste 0 911.7 -1.1 68
2019-05-27 03:00:00 14.3 7 Oeste 13 Oeste 0 912.1 -1 68
2019-05-27 02:00:00 15.3 7 Oeste 12 Oeste 0 912.4 -0.6 67
2019-05-27 01:00:00 15.8 6 Oeste 12 Oeste 0 912.8 0.4 68
2019-05-27 00:00:00 15.6 7 Oeste 11 Noroeste 0 913.1 1 66
2019-05-26 23:00:00 16.9 7 Oeste 17 Sudoeste 0 913 1 61
2019-05-26 22:00:00 18 7 Oeste 21 Sudoeste 0 912.4 0.3 58
2019-05-26 21:00:00 18.6 9 Oeste 23 Oeste 0 912.1 -0.3 56
2019-05-26 20:00:00 21.2 3 Oeste 18 Oeste 0 912 -0.6 48
2019-05-26 19:00:00 23.1 5 Noroeste 18 Oeste 0 912.1 -0.9 41
2019-05-26 18:00:00 23.8 6 Este 17 Este 0 912.4 -0.9 42
2019-05-26 17:00:00 23.8 0 Calma 13 Este 0 912.6 -1.2 44
2019-05-26 16:00:00 22.6 0 Calma 21 Noroeste 0 913 -1.1 47
2019-05-26 15:00:00 22.3 3 Noroeste 21 Este 0 913.3 -0.8 47
2019-05-26 14:00:00 23.9 4 Este 17 Este 0 913.8 -0.2 42
2019-05-26 13:00:00 22.6 6 Este 17 Este 0 914.1 0 48
2019-05-26 12:00:00 21.6 6 Este 17 Nordeste 0 914.1 0.2 51
2019-05-26 11:00:00 20.8 5 Este 13 Este 0 914 0.3 52
2019-05-26 10:00:00 18.5 4 Este 10 Este 0 914.1 0.8 61
2019-05-26 09:00:00 16.3 2 Noroeste 6 Oeste 0 913.9 0.9 77
2019-05-26 08:00:00 12.5 6 Oeste 11 Oeste 0 913.7 0.4 86
2019-05-26 07:00:00 11.3 7 Oeste 11 Oeste 0 913.3 -0.4 85
2019-05-26 06:00:00 11.3 8 Oeste 10 Oeste 0 913 -1.1 85
2019-05-26 05:00:00 11.9 7 Oeste 11 Noroeste 0 913.3 -0.9 85
2019-05-26 04:00:00 12.2 6 Oeste 10 Oeste 0 913.7 -0.7 82
2019-05-26 03:00:00 13 6 Oeste 10 Oeste 0 914.1 -0.3 76
2019-05-26 02:00:00 13.9 5 Oeste 11 Oeste 0 914.2 0 70
2019-05-26 01:00:00 13.7 6 Oeste 12 Oeste 0 914.4 1 69
2019-05-26 00:00:00 13.3 7 Oeste 10 Oeste 0 914.4 1.4 65
2019-05-25 23:00:00 14.4 8 Oeste 10 Oeste 0 914.2 1.5 65
2019-05-25 22:00:00 16.4 7 Oeste 9 Oeste 0 913.4 0.8 49
2019-05-25 21:00:00 18.7 0 Calma 15 Sudeste 0 913 0.5 45
2019-05-25 20:00:00 20.8 0 Calma 16 Noroeste 0 912.7 0.3 41
2019-05-25 19:00:00 21.6 3 Este 19 Noroeste 0 912.6 0 41
2019-05-25 18:00:00 22.5 4 Este 19 Nordeste 0 912.5 -0.2 41
2019-05-25 17:00:00 22.7 6 Este 28 Este 0 912.4 -0.7 40
2019-05-25 16:00:00 21.9 0 Calma 21 Este 0 912.6 -0.4 40
2019-05-25 15:00:00 22.7 2 Nordeste 24 Este 0 912.7 -0.1 43
2019-05-25 14:00:00 20.7 5 Este 24 Este 0 913.1 0.4 45
2019-05-25 13:00:00 21.2 7 Este 23 Nordeste 0 913 0.8 49
2019-05-25 12:00:00 20.1 8 Este 15 Este 0 912.8 0.9 57
2019-05-25 11:00:00 19 3 Nordeste 14 Este 0 912.7 1.4 62
2019-05-25 10:00:00 17.1 5 Este 12 Este 0 912.2 1.3 69
2019-05-25 09:00:00 15.9 4 Este 9 Este 0 911.9 1.2 71
2019-05-25 08:00:00 12.3 3 Oeste 10 Oeste 0 911.3 0.9 80
2019-05-25 07:00:00 10.9 8 Oeste 10 Oeste 0 910.9 0.6 78
2019-05-25 06:00:00 11.4 8 Oeste 11 Oeste 0 910.7 0.4 74
2019-05-25 05:00:00 11.8 7 Oeste 10 Oeste 0 910.4 0 71
2019-05-25 04:00:00 12.1 7 Oeste 12 Oeste 0 910.3 -0.2 68
2019-05-25 03:00:00 13.6 8 Oeste 11 Noroeste 0 910.3 -0.2 62
2019-05-25 02:00:00 15.7 0 Calma 14 Noroeste 0 910.4 0 56
2019-05-25 01:00:00 16.3 7 Oeste 14 Oeste 0 910.5 0.7 55
2019-05-25 00:00:00 16.1 7 Oeste 16 Oeste 0 910.5 1.1 56
2019-05-24 23:00:00 15.5 8 Oeste 16 Noroeste 0 910.4 1.2 59
2019-05-24 22:00:00 16.1 7 Oeste 17 Oeste 0 909.8 0.5 63
2019-05-24 21:00:00 16.5 8 Oeste 18 Oeste 0 909.4 -0.1 62
2019-05-24 20:00:00 17.9 7 Oeste 21 Oeste 0 909.2 -0.3 59
2019-05-24 19:00:00 19.5 7 Oeste 21 Sudoeste 0 909.3 -0.3 56
2019-05-24 18:00:00 20.7 7 Oeste 26 Oeste 0 909.5 -0.2 49
2019-05-24 17:00:00 21.6 7 Oeste 20 Noroeste 0 909.5 -0.6 41
2019-05-24 16:00:00 21.1 8 Oeste 19 Oeste 0 909.6 -1.1 41
2019-05-24 15:00:00 21.4 8 Oeste 18 Oeste 0 909.7 -0.9 44
2019-05-24 14:00:00 20.7 8 Sudoeste 25 Sudoeste 0 910.1 -0.2 48
2019-05-24 13:00:00 20.2 8 Sudoeste 25 Oeste 0 910.7 0.3 51
2019-05-24 12:00:00 19.8 10 Oeste 24 Sudoeste 0 910.6 -0.1 48
2019-05-24 11:00:00 20.8 9 Oeste 23 Sudoeste 0 910.3 -0.9 43
2019-05-24 10:00:00 19 6 Oeste 18 Noroeste 0 910.4 -0.7 52
2019-05-24 09:00:00 15.3 5 Oeste 11 Oeste 0 910.7 -0.6 66
2019-05-24 08:00:00 13.4 7 Oeste 12 Oeste 0 911.2 -0.7 65
2019-05-24 07:00:00 13.1 7 Oeste 13 Oeste 0 911.1 -1.3 65
2019-05-24 06:00:00 12.9 8 Oeste 11 Noroeste 0 911.3 -1.3 65
2019-05-24 05:00:00 12.6 7 Oeste 10 Oeste 0 911.9 -1.4 62
2019-05-24 04:00:00 15.5 2 Sudoeste 8 Sudoeste 0 912.4 -1.4 53
2019-05-24 03:00:00 16.8 3 Sudoeste 14 Sudoeste 0 912.6 -1.4 52
2019-05-24 02:00:00 16.1 9 Oeste 14 Oeste 0 913.3 -0.5 55
2019-05-24 01:00:00 17.3 5 Oeste 16 Sudoeste 0 913.8 0.3 52
2019-05-24 00:00:00 17.7 7 Oeste 15 Oeste 0 914 0.7 52
2019-05-23 23:00:00 17.7 8 Oeste 15 Oeste 0 913.8 0.6 51
2019-05-23 22:00:00 18.6 6 Oeste 17 Sudoeste 0 913.5 0.3 46
2019-05-23 21:00:00 19.9 7 Oeste 17 Sudoeste 0 913.3 -0.2 43
2019-05-23 20:00:00 21.8 6 Oeste 18 Sudoeste 0 913.2 -0.7 41
2019-05-23 19:00:00 23.2 7 Oeste 21 Noroeste 0 913.2 -1.1 40
2019-05-23 18:00:00 23.7 6 Sudoeste 21 Oeste 0 913.5 -1 40
2019-05-23 17:00:00 23.8 8 Oeste 17 Oeste 0 913.9 -0.9 40
2019-05-23 16:00:00 24.8 6 Oeste 17 Noroeste 0 914.3 -0.6 40
2019-05-23 15:00:00 24.1 7 Oeste 17 Noroeste 0 914.5 -0.3 40
2019-05-23 14:00:00 23.7 8 Oeste 16 Oeste 0 914.8 0.1 39
2019-05-23 13:00:00 24.2 5 Nordeste 23 Este 0 914.9 0.1 35
2019-05-23 12:00:00 23.3 4 Nordeste 15 Este 0 914.8 0.5 39
2019-05-23 11:00:00 21.8 4 Este 13 Este 0 914.7 0.5 42
2019-05-23 10:00:00 19.7 3 Nordeste 12 Este 0 914.8 0.6 43
2019-05-23 09:00:00 18.7 5 Nordeste 18 Este 0 914.3 0.1 45
2019-05-23 08:00:00 14.3 3 Sudeste 11 Sur 0 914.2 -0.2 62
2019-05-23 07:00:00 11.3 5 Oeste 11 Sur 0 914.2 -0.2 70
2019-05-23 06:00:00 11 9 Oeste 12 Oeste 0 914.2 -0.7 71
2019-05-23 05:00:00 11.5 8 Oeste 11 Noroeste 0 914.4 -0.8 78
2019-05-23 04:00:00 12.1 6 Oeste 12 Oeste 0 914.4 -0.8 84
2019-05-23 03:00:00 12.8 6 Oeste 12 Oeste 0 914.9 0 85
2019-05-23 02:00:00 12.9 7 Oeste 10 Oeste 0 915.2 0.5 86
2019-05-23 01:00:00 13.1 8 Oeste 10 Noroeste 0 915.2 1.1 84
2019-05-23 00:00:00 13.5 7 Oeste 10 Oeste 0 914.9 1.1 80
2019-05-22 23:00:00 14.5 7 Oeste 13 Noroeste 0 914.7 1.1 76
2019-05-22 22:00:00 16.8 8 Oeste 13 Oeste 0 914.1 0.6 70
2019-05-22 21:00:00 18.8 4 Oeste 9 Noroeste 0 913.8 0.1 66
2019-05-22 20:00:00 19.6 5 Oeste 8 Noroeste 0 913.6 -0.2 62
2019-05-22 19:00:00 20.9 2 Noroeste 7 Noroeste 0 913.5 -0.4 54
2019-05-22 18:00:00 21 5 Noroeste 13 Sudoeste 0 913.7 -0.3 56
2019-05-22 17:00:00 22.4 4 Sudoeste 15 Oeste 0 913.8 -0.3 54
2019-05-22 16:00:00 21.4 3 Noroeste 13 Noroeste 0 913.9 -0.2 53
2019-05-22 15:00:00 21.2 4 Oeste 12 Oeste 0 914 0 53
2019-05-22 14:00:00 22.3 0 Calma 17 Nordeste 0 914.1 0.4 44
2019-05-22 13:00:00 22.9 4 Este 18 Nordeste 0 914.1 0.7 45
2019-05-22 12:00:00 21.6 7 Este 22 Nordeste 0 914 1 48
2019-05-22 11:00:00 20.1 6 Nordeste 18 Este 0 913.7 0.8 54
2019-05-22 10:00:00 18.5 6 Nordeste 12 Nordeste 0 913.4 1 59
2019-05-22 09:00:00 17 3 Nordeste 11 Sudeste 0 913 0.5 68
2019-05-22 08:00:00 12.4 5 Noroeste 12 Oeste 0 912.9 0.4 82
2019-05-22 07:00:00 10.4 8 Oeste 12 Oeste 0 912.4 -0.2 81
2019-05-22 06:00:00 10.7 6 Oeste 11 Oeste 0 912.5 -0.2 79
2019-05-22 05:00:00 11.1 8 Oeste 11 Oeste 0 912.5 -0.5 82
2019-05-22 04:00:00 11.3 7 Oeste 10 Oeste 0 912.6 -0.6 80
2019-05-22 03:00:00 11.8 7 Oeste 12 Oeste 0 912.7 -0.7 76
2019-05-22 02:00:00 12.2 7 Oeste 12 Oeste 0 913 -0.2 71
2019-05-22 01:00:00 12.2 7 Oeste 12 Oeste 0 913.2 0.7 71
2019-05-22 00:00:00 11.7 6 Oeste 13 Oeste 0 913.4 1.2 73
2019-05-21 23:00:00 12.4 7 Oeste 13 Noroeste 0 913.2 1.6 73
2019-05-21 22:00:00 14.1 9 Oeste 15 Sudoeste 0 912.5 1.2 69
2019-05-21 21:00:00 16.1 6 Oeste 18 Oeste 0 912.2 0.7 61
2019-05-21 20:00:00 17.4 7 Oeste 22 Sudoeste 0 911.6 0.1 56
2019-05-21 19:00:00 19.1 6 Oeste 19 Sudoeste 0 911.3 -0.5 52
2019-05-21 18:00:00 18.8 7 Oeste 21 Noroeste 0 911.5 -0.4 52
2019-05-21 17:00:00 20.7 7 Oeste 26 Noroeste 0 911.5 -0.4 49
2019-05-21 16:00:00 21.2 8 Oeste 22 Oeste 0 911.8 -0.1 50
2019-05-21 15:00:00 20.7 8 Oeste 19 Sudoeste 0 911.9 0 51
2019-05-21 14:00:00 20.4 6 Oeste 19 Noroeste 0 911.9 0 54
2019-05-21 13:00:00 19.6 6 Oeste 17 Noroeste 0 911.9 0.4 53
2019-05-21 12:00:00 18.5 5 Oeste 18 Oeste 0 911.9 0.6 53
2019-05-21 11:00:00 18.2 7 Noroeste 17 Noroeste 0 911.9 0.8 55
2019-05-21 10:00:00 16.6 5 Este 11 Este 0 911.5 0.8 56
2019-05-21 09:00:00 14.4 0 Calma 10 Noroeste 0 911.3 0.7 63
2019-05-21 08:00:00 10.6 8 Oeste 11 Oeste 0 911.1 0.5 72
2019-05-21 07:00:00 9.4 8 Oeste 11 Oeste 0 910.7 0.3 70
2019-05-21 06:00:00 10.9 6 Oeste 10 Oeste 0 910.6 -0.1 62
2019-05-21 05:00:00 13.3 0 Calma 13 Oeste 0 910.6 -0.4 55
2019-05-21 04:00:00 13.5 2 Sudoeste 13 Sur 0 910.4 -0.8 55
2019-05-21 03:00:00 13.3 5 Noroeste 15 Sudoeste 0 910.7 -0.6 57
2019-05-21 02:00:00 13.8 8 Sudoeste 16 Oeste 0 911 -0.2 53
2019-05-21 01:00:00 12.8 9 Oeste 19 Noroeste 0 911.2 0.8 56
2019-05-21 00:00:00 13.4 8 Oeste 16 Oeste 0 911.3 1.2 53
2019-05-20 23:00:00 12.1 7 Oeste 15 Oeste 0 911.2 1.4 58
2019-05-20 22:00:00 13.5 10 Oeste 17 Noroeste 0 910.4 0.6 55
2019-05-20 21:00:00 15.1 5 Oeste 19 Sudoeste 0 910.1 0.4 49
2019-05-20 20:00:00 16.8 5 Oeste 20 Sudoeste 0 909.8 0 46
2019-05-20 19:00:00 18 9 Sudoeste 23 Oeste 0 909.8 -0.4 45
2019-05-20 18:00:00 19.2 7 Oeste 22 Oeste 0 909.7 -0.8 45
2019-05-20 17:00:00 19.9 8 Oeste 20 Oeste 0 909.8 -0.8 44
2019-05-20 16:00:00 19.6 6 Oeste 22 Oeste 0 910.2 -0.3 49
2019-05-20 15:00:00 19.1 8 Oeste 21 Noroeste 0 910.5 -0.1 54
2019-05-20 14:00:00 18.5 9 Oeste 21 Noroeste 0 910.6 0.5 58
2019-05-20 13:00:00 17.6 6 Oeste 22 Noroeste 0 910.5 0.6 58
2019-05-20 12:00:00 18.1 7 Oeste 20 Noroeste 0 910.6 1 58
2019-05-20 11:00:00 16.2 9 Oeste 18 Oeste 0 910.1 0.9 59
2019-05-20 10:00:00 15.2 4 Nordeste 9 Este 0 909.9 1.1 71
2019-05-20 09:00:00 13.6 2 Este 8 Noroeste 0 909.6 0.8 78
2019-05-20 08:00:00 10 6 Oeste 10 Oeste 0 909.2 0.2 90
2019-05-20 07:00:00 8.8 7 Oeste 12 Oeste 0 908.8 -0.4 91
2019-05-20 06:00:00 9.2 6 Oeste 10 Oeste 0 908.8 -0.9 92
2019-05-20 05:00:00 10 6 Oeste 10 Noroeste 0 909 -1.2 93
2019-05-20 04:00:00 11.1 6 Oeste 15 Noroeste 0 909.2 -1.2 90
2019-05-20 03:00:00 11.7 8 Oeste 14 Oeste 0 909.7 -0.9 89
2019-05-20 02:00:00 12.2 6 Oeste 18 Oeste 0 910.2 -0.2 88
2019-05-20 01:00:00 12.1 8 Oeste 19 Oeste 0 910.4 0.3 87
2019-05-20 00:00:00 12.5 7 Oeste 21 Sudoeste 0 910.6 1 84
2019-05-19 23:00:00 12.2 9 Oeste 23 Oeste 0 910.4 1 88
2019-05-19 22:00:00 11.9 9 Oeste 26 Sudoeste 0 910.1 0.6 89
2019-05-19 21:00:00 13 7 Oeste 21 Sudoeste 0 909.6 0.3 85
2019-05-19 20:00:00 14.1 8 Oeste 26 Sudoeste 0 909.4 -0.3 71
2019-05-19 19:00:00 14.9 7 Oeste 23 Oeste 0 909.5 -0.2 67
2019-05-19 18:00:00 16.2 5 Oeste 22 Oeste 0 909.3 -0.5 57
2019-05-19 17:00:00 17.3 9 Oeste 31 Norte 0 909.7 0 49
2019-05-19 16:00:00 17.5 7 Oeste 23 Sudoeste 0 909.7 -0.2 45
2019-05-19 15:00:00 16.5 8 Oeste 24 Sudoeste 0 909.8 -0.4 48
2019-05-19 14:00:00 15.5 9 Oeste 23 Noroeste 0 909.7 0 51
2019-05-19 13:00:00 15.1 6 Oeste 21 Sudoeste 0 909.9 0.2 53
2019-05-19 12:00:00 13.4 9 Oeste 20 Oeste 0 910.2 0.8 63
2019-05-19 11:00:00 12.1 9 Noroeste 22 Noroeste 0 909.7 0.8 68
2019-05-19 10:00:00 11.1 5 Nordeste 20 Oeste 0 909.7 1.5 72
2019-05-19 09:00:00 9.2 8 Noroeste 21 Noroeste 0 909.4 0.5 77
2019-05-19 08:00:00 8.4 8 Oeste 31 Sudoeste 0 908.9 0 77
2019-05-19 07:00:00 9.2 4 Oeste 21 Oeste 0 908.2 -0.9 74
2019-05-19 06:00:00 9.2 8 Noroeste 23 Noroeste 0 908.9 -0.6 73
2019-05-19 05:00:00 9.7 4 Oeste 18 Oeste 0 908.9 -1 70
2019-05-19 04:00:00 10 5 Oeste 16 Sudoeste 0 909.1 -1.1 69
2019-05-19 03:00:00 10.5 6 Oeste 20 Noroeste 0 909.5 -0.9 69
2019-05-19 02:00:00 10.7 3 Noroeste 24 Oeste 0 909.9 -0.5 69
2019-05-19 01:00:00 11 6 Oeste 17 Noroeste 0 910.2 0.1 72
2019-05-19 00:00:00 11 7 Oeste 17 Oeste 0 910.4 0.7 75
2019-05-18 23:00:00 11.5 7 Oeste 23 Sudoeste 0 910.4 1 76
2019-05-18 22:00:00 11 9 Sudoeste 28 Sudoeste 0 910.1 1 79
2019-05-18 21:00:00 11.6 8 Sudoeste 23 Sudoeste 0 909.7 0.9 76
2019-05-18 20:00:00 12.9 9 Oeste 28 Sudoeste 0 909.4 0.5 67
2019-05-18 19:00:00 14.1 9 Oeste 30 Sudoeste 0 909.1 -0.1 58
2019-05-18 18:00:00 15.2 10 Oeste 29 Sudoeste 0 908.8 -0.3 52
2019-05-18 17:00:00 15.8 9 Oeste 31 Oeste 0 908.9 -0.2 49
2019-05-18 16:00:00 15.9 9 Oeste 26 Sudoeste 0 909.2 0.1 51
2019-05-18 15:00:00 15.7 9 Oeste 23 Oeste 0 909.1 0.3 53
2019-05-18 14:00:00 15.1 8 Oeste 24 Noroeste 0 909.1 0.5 55
2019-05-18 13:00:00 13.4 10 Oeste 26 Noroeste 0 909.1 0.7 59
2019-05-18 12:00:00 13.3 8 Oeste 23 Noroeste 0 908.8 0.8 58
2019-05-18 11:00:00 12.6 6 Oeste 18 Oeste 0 908.6 0.6 56
2019-05-18 10:00:00 11.1 5 Oeste 24 Noroeste 0 908.4 0.9 68
2019-05-18 09:00:00 9.1 6 Noroeste 16 Noroeste 0 908 0.6 74
2019-05-18 08:00:00 8.6 6 Noroeste 19 Noroeste 0 908 0.6 75
2019-05-18 07:00:00 8.2 6 Noroeste 21 Noroeste 0 907.5 -0.9 79
2019-05-18 06:00:00 8.5 5 Oeste 10 Oeste 0 907.4 -1.3 77
2019-05-18 05:00:00 9.4 12 Noroeste 23 Noroeste 0 907.4 -1.8 73
2019-05-18 04:00:00 10 8 Noroeste 20 Noroeste 0 908.4 -1 72
2019-05-18 03:00:00 10.6 7 Oeste 25 Noroeste 0 908.7 -1.3 70
2019-05-18 02:00:00 11.7 5 Noroeste 17 Noroeste 0 909.2 -0.7 66
2019-05-18 01:00:00 12 7 Oeste 21 Noroeste 0 909.4 0.2 66
2019-05-18 00:00:00 11.6 8 Oeste 23 Oeste 0 910 0.7 71
2019-05-17 23:00:00 12.1 6 Sudoeste 24 Sudoeste 0 909.9 0.8 70
2019-05-17 22:00:00 11.8 8 Oeste 24 Sudoeste 0 909.2 0 77
2019-05-17 21:00:00 12.1 9 Oeste 24 Oeste 0 909.3 -0.1 71
2019-05-17 20:00:00 13.5 10 Oeste 24 Sudoeste 0 909.1 -0.4 61
2019-05-17 19:00:00 15.1 8 Oeste 23 Oeste 0 909.2 -0.5 49
2019-05-17 18:00:00 16.1 9 Oeste 27 Sudoeste 0 909.4 -0.2 48
2019-05-17 17:00:00 16.3 8 Oeste 24 Sudoeste 0 909.5 -0.2 51
2019-05-17 16:00:00 15.2 11 Noroeste 23 Noroeste 0 909.7 -0.1 51
2019-05-17 15:00:00 15.5 9 Noroeste 25 Noroeste 0 909.6 0.3 51
2019-05-17 14:00:00 14.3 6 Oeste 23 Oeste 0 909.7 0.6 50
2019-05-17 13:00:00 14.2 4 Noroeste 23 Sudoeste 0 909.8 0.6 53
2019-05-17 12:00:00 12.7 11 Noroeste 23 Noroeste 0 909.3 0.6 57
2019-05-17 11:00:00 12.9 4 Este 20 Nordeste 0 909.1 0.7 66
2019-05-17 10:00:00 9.7 6 Este 17 Nordeste 0 909.2 1.3 76
2019-05-17 09:00:00 9 4 Nordeste 15 Noroeste 0 908.7 1.2 76
2019-05-17 08:00:00 9.8 4 Oeste 17 Noroeste 0 908.4 0.8 57
2019-05-17 07:00:00 8.3 5 Oeste 18 Noroeste 0 907.9 0.2 68
2019-05-17 06:00:00 9.3 9 Oeste 26 Noroeste 0 907.5 -0.7 64
2019-05-17 05:00:00 11.4 6 Noroeste 22 Noroeste 0 907.6 -0.8 48
2019-05-17 04:00:00 11 8 Oeste 25 Oeste 0 907.7 -0.7 61
2019-05-17 03:00:00 11.8 8 Oeste 29 Oeste 0 908.2 -0.3 71
2019-05-17 02:00:00 13.8 4 Oeste 36 Noroeste 0 908.4 -0.3 69
2019-05-17 01:00:00 15.6 8 Oeste 23 Sudoeste 0 908.4 0.2 56
2019-05-17 00:00:00 16.9 9 Oeste 28 Sur 0 908.5 0.6 51